createdAt,value
2022-10-14T00:01:22.448Z,39.60
2022-10-14T00:04:06.342Z,37.43
2022-10-14T00:06:34.730Z,39.00
2022-10-14T00:09:04.770Z,35.20
2022-10-14T00:11:34.193Z,32.43
2022-10-14T00:14:07.997Z,33.33
2022-10-14T00:16:40.718Z,29.07
2022-10-14T00:19:10.509Z,29.17
2022-10-14T00:21:40.024Z,28.90
2022-10-14T00:24:08.869Z,28.37
2022-10-14T00:26:38.730Z,29.50
2022-10-14T00:29:09.088Z,26.67
2022-10-14T00:31:36.211Z,28.33
2022-10-14T00:34:03.971Z,26.07
2022-10-14T00:36:31.216Z,27.20
2022-10-14T00:38:58.008Z,26.27
2022-10-14T00:41:29.014Z,27.13
2022-10-14T00:44:03.975Z,28.63
2022-10-14T00:46:37.268Z,28.07
2022-10-14T00:49:11.752Z,26.57
2022-10-14T00:51:40.875Z,26.67
2022-10-14T00:54:09.564Z,26.47
2022-10-14T00:56:36.928Z,26.13
2022-10-14T00:59:06.920Z,25.57
2022-10-14T01:01:34.144Z,29.10
2022-10-14T01:04:01.129Z,28.03
2022-10-14T01:06:52.092Z,27.43
2022-10-14T01:09:28.137Z,27.83
2022-10-14T01:12:33.234Z,27.77
2022-10-14T01:15:27.444Z,27.53
2022-10-14T01:18:20.957Z,29.20
2022-10-14T01:21:19.071Z,28.10
2022-10-14T01:24:05.423Z,27.87
2022-10-14T01:26:51.958Z,28.60
2022-10-14T01:29:40.583Z,28.50
2022-10-14T01:32:31.513Z,28.33
2022-10-14T01:35:17.352Z,25.97
2022-10-14T01:38:10.329Z,28.80
2022-10-14T01:40:58.017Z,30.77
2022-10-14T01:43:28.343Z,30.77
2022-10-14T01:45:57.410Z,35.43
2022-10-14T01:48:30.413Z,40.93
2022-10-14T01:51:00.936Z,53.43
2022-10-14T01:53:36.287Z,51.33
2022-10-14T01:56:04.596Z,38.77
2022-10-14T01:58:34.524Z,35.37
2022-10-14T02:01:04.464Z,35.10
2022-10-14T02:03:43.400Z,32.73
2022-10-14T02:06:19.492Z,32.23
2022-10-14T02:09:08.849Z,33.23
2022-10-14T02:11:57.944Z,31.97
2022-10-14T02:14:32.963Z,32.90
2022-10-14T02:17:06.199Z,33.07
2022-10-14T02:19:52.410Z,33.30
2022-10-14T02:22:30.667Z,30.60
2022-10-14T02:25:03.160Z,32.60
2022-10-14T02:27:32.469Z,30.53
2022-10-14T02:30:00.535Z,29.23
2022-10-14T02:32:28.465Z,32.07
2022-10-14T02:34:58.513Z,34.33
2022-10-14T02:37:29.663Z,33.77
2022-10-14T02:40:06.115Z,32.40
2022-10-14T02:42:33.689Z,32.13
2022-10-14T02:45:04.129Z,31.43
2022-10-14T02:47:30.836Z,31.80
2022-10-14T02:49:57.791Z,33.83
2022-10-14T02:52:24.925Z,32.47
2022-10-14T02:54:53.251Z,30.80
2022-10-14T02:57:20.128Z,35.10
2022-10-14T02:59:48.432Z,33.90
2022-10-14T03:02:15.443Z,34.87
2022-10-14T03:04:42.551Z,36.73
2022-10-14T03:07:10.122Z,32.63
2022-10-14T03:09:43.024Z,34.10
2022-10-14T03:12:10.524Z,35.30
2022-10-14T03:14:38.456Z,35.03
2022-10-14T03:17:07.537Z,35.53
2022-10-14T03:19:34.590Z,37.17
2022-10-14T03:22:01.375Z,44.33
2022-10-14T03:24:29.171Z,43.37
2022-10-14T03:27:15.389Z,43.23
2022-10-14T03:29:43.533Z,40.30
2022-10-14T03:32:19.412Z,39.37
2022-10-14T03:35:18.670Z,38.70
2022-10-14T03:37:48.565Z,34.37
2022-10-14T03:40:18.336Z,35.47
2022-10-14T03:42:45.081Z,34.27
2022-10-14T03:45:12.908Z,34.17
2022-10-14T03:47:40.794Z,36.53
2022-10-14T03:50:07.927Z,38.27
2022-10-14T03:52:46.419Z,36.67
2022-10-14T03:55:22.610Z,40.13
2022-10-14T03:57:51.766Z,36.43
2022-10-14T04:00:19.463Z,36.40
2022-10-14T04:02:53.004Z,39.20
2022-10-14T04:05:40.391Z,39.77
2022-10-14T04:08:12.002Z,41.60
2022-10-14T04:10:42.843Z,41.67
2022-10-14T04:13:12.692Z,40.50
2022-10-14T04:15:40.344Z,41.33
2022-10-14T04:18:18.238Z,40.30
2022-10-14T04:20:47.015Z,43.23
2022-10-14T04:23:15.510Z,41.00
2022-10-14T04:25:45.802Z,45.77
2022-10-14T04:28:13.279Z,48.47
2022-10-14T04:30:57.339Z,48.93
2022-10-14T04:33:28.924Z,49.07
2022-10-14T04:36:04.770Z,49.73
2022-10-14T04:38:36.292Z,48.77
2022-10-14T04:41:06.668Z,48.87
2022-10-14T04:43:34.200Z,49.53
2022-10-14T04:46:14.839Z,51.83
2022-10-14T04:48:41.735Z,53.27
2022-10-14T04:51:08.539Z,53.43
2022-10-14T04:53:45.811Z,54.67
2022-10-14T04:56:29.038Z,53.60
2022-10-14T04:59:00.822Z,51.87
2022-10-14T05:01:51.582Z,51.53
2022-10-14T05:04:18.839Z,53.50
2022-10-14T05:06:48.193Z,52.23
2022-10-14T05:09:18.173Z,54.60
2022-10-14T05:11:45.768Z,52.47
2022-10-14T05:14:15.744Z,51.00
2022-10-14T05:16:46.036Z,48.87
2022-10-14T05:19:13.079Z,48.63
2022-10-14T05:21:48.178Z,49.43
2022-10-14T05:24:20.488Z,49.17
2022-10-14T05:26:47.481Z,47.03
2022-10-14T05:29:15.798Z,44.80
2022-10-14T05:31:42.837Z,44.90
2022-10-14T05:34:25.713Z,46.17
2022-10-14T05:36:52.758Z,44.37
2022-10-14T05:39:21.654Z,45.53
2022-10-14T05:41:48.446Z,44.03
2022-10-14T05:44:20.378Z,43.80
2022-10-14T05:46:48.646Z,47.37
2022-10-14T05:49:16.298Z,46.50
2022-10-14T05:51:44.228Z,48.90
2022-10-14T05:54:17.788Z,45.57
2022-10-14T05:56:44.714Z,49.83
2022-10-14T05:59:12.380Z,48.63
2022-10-14T06:01:40.656Z,57.47
2022-10-14T06:04:08.048Z,51.53
2022-10-14T06:06:34.913Z,52.43
2022-10-14T06:09:02.014Z,52.03
2022-10-14T06:11:28.842Z,56.33
2022-10-14T06:13:55.852Z,51.17
2022-10-14T06:16:22.883Z,54.00
2022-10-14T06:18:54.123Z,51.67
2022-10-14T06:21:22.943Z,47.33
2022-10-14T06:23:50.000Z,49.70
2022-10-14T06:26:16.796Z,52.93
2022-10-14T06:28:43.801Z,66.90
2022-10-14T06:31:10.856Z,81.03
2022-10-14T06:33:37.691Z,61.30
2022-10-14T06:36:05.822Z,53.00
2022-10-14T06:38:33.259Z,54.43
2022-10-14T06:41:00.120Z,53.57
2022-10-14T06:43:27.472Z,52.40
2022-10-14T06:45:57.304Z,52.27
2022-10-14T06:48:24.206Z,49.57
2022-10-14T06:50:50.963Z,52.00
2022-10-14T06:53:17.934Z,49.67
2022-10-14T06:55:44.849Z,48.77
2022-10-14T06:58:11.743Z,44.33
2022-10-14T07:00:38.714Z,44.70
2022-10-14T07:03:05.496Z,53.17
2022-10-14T07:05:32.569Z,37.27
2022-10-14T07:10:31.149Z,38.90
2022-10-14T07:12:57.911Z,38.67
2022-10-14T07:15:24.969Z,39.73
2022-10-14T07:17:51.704Z,37.58
2022-10-14T07:20:18.519Z,37.00
2022-10-14T07:22:45.541Z,37.10
2022-10-14T07:25:12.419Z,44.00
2022-10-14T07:27:39.137Z,40.45
2022-10-14T07:30:06.459Z,36.72
2022-10-14T07:32:37.008Z,37.97
2022-10-14T07:35:04.244Z,36.63
2022-10-14T07:37:31.184Z,34.00
2022-10-14T07:39:58.140Z,35.45
2022-10-14T07:42:24.975Z,32.05
2022-10-14T07:44:54.128Z,32.75
2022-10-14T07:47:21.642Z,30.00
2022-10-14T07:49:48.897Z,28.02
2022-10-14T07:52:16.308Z,26.05
2022-10-14T07:54:43.111Z,30.13
2022-10-14T07:57:09.859Z,25.67
2022-10-14T07:59:36.865Z,27.45
2022-10-14T08:02:04.361Z,28.75
2022-10-14T08:04:31.744Z,29.27
2022-10-14T08:06:58.584Z,31.27
2022-10-14T08:11:57.525Z,31.30
2022-10-14T08:14:24.286Z,31.35
2022-10-14T08:16:51.383Z,32.28
2022-10-14T08:19:18.293Z,30.90
2022-10-14T08:21:45.039Z,33.17
2022-10-14T08:24:12.246Z,32.72
2022-10-14T08:26:54.531Z,32.70
2022-10-14T08:29:24.586Z,32.95
2022-10-14T08:31:52.615Z,32.35
2022-10-14T08:34:24.390Z,31.23
2022-10-14T08:36:51.862Z,31.65
2022-10-14T08:39:19.891Z,29.67
2022-10-14T08:41:58.704Z,29.60
2022-10-14T08:44:47.411Z,31.67
2022-10-14T08:47:16.509Z,31.90
2022-10-14T08:49:58.588Z,32.58
2022-10-14T08:52:37.582Z,31.00
2022-10-14T08:55:21.580Z,31.98
2022-10-14T08:57:53.965Z,30.05
2022-10-14T09:00:21.862Z,30.80
2022-10-14T09:02:51.388Z,31.83
2022-10-14T09:05:22.703Z,32.72
2022-10-14T09:07:52.425Z,31.08
2022-10-14T09:10:25.540Z,32.55
2022-10-14T09:12:56.226Z,34.30
2022-10-14T09:15:32.440Z,36.95
2022-10-14T09:18:06.696Z,34.40
2022-10-14T09:20:34.080Z,33.65
2022-10-14T09:23:12.810Z,33.05
2022-10-14T09:25:45.928Z,30.10
2022-10-14T09:28:12.872Z,30.17
2022-10-14T09:30:40.621Z,30.65
2022-10-14T09:33:17.489Z,31.17
2022-10-14T09:35:44.514Z,32.72
2022-10-14T09:38:13.513Z,28.23
2022-10-14T09:40:53.940Z,28.83
2022-10-14T09:43:23.295Z,29.02
2022-10-14T09:46:07.802Z,28.83
2022-10-14T09:48:49.112Z,30.27
2022-10-14T09:51:22.045Z,30.70
2022-10-14T09:53:57.720Z,28.38
2022-10-14T09:56:31.879Z,29.70
2022-10-14T09:58:59.170Z,28.92
2022-10-14T10:01:28.980Z,26.70
2022-10-14T10:03:56.900Z,28.17
2022-10-14T10:06:26.463Z,28.55
2022-10-14T10:08:53.613Z,28.00
2022-10-14T10:11:38.022Z,28.05
2022-10-14T10:14:26.927Z,25.60
2022-10-14T10:17:09.839Z,26.83
2022-10-14T10:19:38.974Z,29.40
2022-10-14T10:22:28.459Z,28.48
2022-10-14T10:25:05.933Z,27.25
2022-10-14T10:27:45.666Z,28.02
2022-10-14T10:30:20.270Z,27.20
2022-10-14T10:33:18.099Z,27.50
2022-10-14T10:36:13.389Z,27.55
2022-10-14T10:38:49.678Z,27.13
2022-10-14T10:41:58.527Z,24.55
2022-10-14T10:44:40.222Z,24.90
2022-10-14T10:47:24.292Z,23.75
2022-10-14T10:52:42.687Z,23.95
2022-10-14T10:55:44.074Z,24.60
2022-10-14T10:58:50.322Z,24.08
2022-10-14T11:01:42.493Z,22.10
2022-10-14T11:04:24.666Z,22.58
2022-10-14T11:07:28.102Z,23.20
2022-10-14T11:10:30.026Z,24.23
2022-10-14T11:13:11.768Z,22.10
2022-10-14T11:15:55.563Z,23.58
2022-10-14T11:18:45.365Z,21.73
2022-10-14T11:21:35.632Z,21.60
2022-10-14T11:24:13.644Z,20.60
2022-10-14T11:27:01.782Z,22.65
2022-10-14T11:29:55.034Z,22.48
2022-10-14T11:32:48.197Z,19.85
2022-10-14T11:35:42.967Z,22.02
2022-10-14T11:38:15.950Z,21.27
2022-10-14T11:40:59.381Z,22.05
2022-10-14T11:43:29.275Z,21.48
2022-10-14T11:46:32.701Z,23.02
2022-10-14T11:49:05.641Z,20.58
2022-10-14T11:51:36.101Z,20.38
2022-10-14T11:54:05.756Z,21.10
2022-10-14T11:56:42.142Z,20.85
2022-10-14T11:59:21.324Z,19.40
2022-10-14T12:01:52.141Z,22.02
2022-10-14T12:04:33.860Z,22.20
2022-10-14T12:07:20.028Z,22.92
2022-10-14T12:09:59.873Z,21.45
2022-10-14T12:12:30.193Z,21.83
2022-10-14T12:15:05.765Z,21.45
2022-10-14T12:17:38.737Z,20.00
2022-10-14T12:20:36.159Z,18.77
2022-10-14T12:23:06.821Z,19.60
2022-10-14T12:25:46.578Z,19.25
2022-10-14T12:28:16.827Z,18.40
2022-10-14T12:30:44.055Z,19.92
2022-10-14T12:33:13.275Z,21.00
2022-10-14T12:35:50.760Z,20.15
2022-10-14T12:38:21.297Z,20.70
2022-10-14T12:40:49.262Z,19.80
2022-10-14T12:43:23.627Z,18.73
2022-10-14T12:46:10.258Z,17.77
2022-10-14T12:48:45.828Z,16.55
2022-10-14T12:51:22.507Z,16.80
2022-10-14T12:54:07.216Z,18.40
2022-10-14T12:56:38.428Z,18.23
2022-10-14T12:59:21.689Z,18.40
2022-10-14T13:01:55.886Z,18.83
2022-10-14T13:04:23.337Z,18.98
2022-10-14T13:07:42.138Z,18.67
2022-10-14T13:10:40.401Z,15.82
2022-10-14T13:13:38.196Z,16.27
2022-10-14T13:16:06.800Z,15.07
2022-10-14T13:18:36.316Z,15.57
2022-10-14T13:21:05.901Z,15.75
2022-10-14T13:23:49.696Z,18.15
2022-10-14T13:26:22.477Z,18.95
2022-10-14T13:29:07.899Z,18.35
2022-10-14T13:31:53.511Z,18.33
2022-10-14T13:34:52.791Z,17.17
2022-10-14T13:37:58.268Z,19.25
2022-10-14T13:40:37.611Z,18.40
2022-10-14T13:43:16.231Z,17.45
2022-10-14T13:45:47.425Z,17.83
2022-10-14T13:48:18.107Z,17.02
2022-10-14T13:50:50.512Z,17.27
2022-10-14T13:53:21.120Z,17.15
2022-10-14T13:55:54.791Z,17.10
2022-10-14T13:58:25.017Z,17.33
2022-10-14T14:00:58.067Z,17.17
2022-10-14T14:03:28.837Z,17.23
2022-10-14T14:05:56.773Z,17.58
2022-10-14T14:08:43.095Z,25.38
2022-10-14T14:11:19.068Z,17.23
2022-10-14T14:14:15.426Z,18.60
2022-10-14T14:16:55.894Z,16.80
2022-10-14T14:19:27.398Z,18.67
2022-10-14T14:22:21.027Z,21.95
2022-10-14T14:24:48.776Z,21.02
2022-10-14T14:27:19.219Z,19.05
2022-10-14T14:29:49.926Z,16.10
2022-10-14T14:32:20.637Z,16.15
2022-10-14T14:34:49.887Z,15.68
2022-10-14T14:37:48.172Z,15.23
2022-10-14T14:40:23.270Z,13.50
2022-10-14T14:42:59.376Z,13.80
2022-10-14T14:45:32.329Z,14.52
2022-10-14T14:48:04.232Z,16.13
2022-10-14T14:50:38.182Z,15.57
2022-10-14T14:53:32.503Z,14.82
2022-10-14T14:56:03.775Z,15.43
2022-10-14T14:58:44.065Z,15.48
2022-10-14T15:01:21.120Z,15.82
2022-10-14T15:04:12.812Z,16.45
2022-10-14T15:06:51.110Z,18.05
2022-10-14T15:09:47.376Z,17.13
2022-10-14T15:12:17.760Z,18.13
2022-10-14T15:14:53.627Z,18.15
2022-10-14T15:17:29.716Z,20.52
2022-10-14T15:19:59.889Z,19.85
2022-10-14T15:22:30.301Z,18.75
2022-10-14T15:25:02.329Z,18.02
2022-10-14T15:27:30.537Z,18.35
2022-10-14T15:30:16.413Z,19.48
2022-10-14T15:32:43.538Z,21.67
2022-10-14T15:35:18.123Z,21.35
2022-10-14T15:37:46.172Z,20.73
2022-10-14T15:40:16.329Z,22.75
2022-10-14T15:42:43.328Z,22.50
2022-10-14T15:45:10.745Z,21.42
2022-10-14T15:47:38.466Z,50.88
2022-10-14T15:50:17.819Z,26.48
2022-10-14T15:52:55.593Z,19.55
2022-10-14T15:55:29.699Z,21.02
2022-10-14T15:57:57.273Z,19.05
2022-10-14T16:00:24.621Z,21.33
2022-10-14T16:02:54.673Z,19.25
2022-10-14T16:05:22.097Z,21.27
2022-10-14T16:07:49.253Z,29.10
2022-10-14T16:10:19.331Z,24.50
2022-10-14T16:12:47.217Z,24.02
2022-10-14T16:15:29.159Z,30.33
2022-10-14T16:17:56.140Z,30.48
2022-10-14T16:20:23.567Z,48.60
2022-10-14T16:22:50.661Z,54.53
2022-10-14T16:25:35.278Z,28.92
2022-10-14T16:28:04.293Z,54.03
2022-10-14T16:30:35.269Z,31.02
2022-10-14T16:33:02.959Z,29.65
2022-10-14T16:35:30.428Z,28.80
2022-10-14T16:37:58.103Z,37.05
2022-10-14T16:40:25.336Z,48.20
2022-10-14T16:42:53.732Z,48.40
2022-10-14T16:45:20.727Z,53.05
2022-10-14T16:47:47.510Z,84.82
2022-10-14T16:50:14.376Z,55.90
2022-10-14T16:53:02.257Z,65.88
2022-10-14T16:55:32.132Z,61.10
2022-10-14T16:57:59.218Z,43.90
2022-10-14T17:00:26.128Z,107.55
2022-10-14T17:02:54.215Z,104.50
2022-10-14T17:05:21.248Z,72.63
2022-10-14T17:07:47.942Z,26.92
2022-10-14T17:10:15.011Z,74.60
2022-10-14T17:12:42.317Z,69.03
2022-10-14T17:15:09.572Z,39.45
2022-10-14T17:17:40.144Z,37.38
2022-10-14T17:20:09.326Z,31.83
2022-10-14T17:22:36.862Z,35.60
2022-10-14T17:25:05.157Z,45.40
2022-10-14T17:27:32.105Z,76.85
2022-10-14T17:29:59.291Z,62.97
2022-10-14T17:32:28.150Z,84.32
2022-10-14T17:34:55.121Z,71.15
2022-10-14T17:37:22.621Z,50.70
2022-10-14T17:39:49.483Z,51.83
2022-10-14T17:42:16.548Z,107.47
2022-10-14T17:44:45.806Z,107.90
2022-10-14T17:47:12.529Z,70.35
2022-10-14T17:49:39.591Z,30.50
2022-10-14T17:52:07.132Z,34.00
2022-10-14T17:54:34.028Z,72.25
2022-10-14T17:57:00.921Z,47.72
2022-10-14T17:59:27.959Z,63.88
2022-10-14T18:02:02.570Z,45.23
2022-10-14T18:04:30.231Z,32.38
2022-10-14T18:06:58.527Z,37.00
2022-10-14T18:09:25.280Z,59.70
2022-10-14T18:12:09.231Z,39.40
2022-10-14T18:14:40.686Z,87.40
2022-10-14T18:17:10.723Z,81.80
2022-10-14T18:19:38.209Z,41.43
2022-10-14T18:22:06.664Z,145.65
2022-10-14T18:24:36.996Z,54.77
2022-10-14T18:27:04.729Z,55.00
2022-10-14T18:29:31.480Z,32.33
2022-10-14T18:31:58.447Z,32.20
2022-10-14T18:34:27.291Z,36.63
2022-10-14T18:36:54.119Z,125.13
2022-10-14T18:39:21.165Z,32.92
2022-10-14T18:41:48.435Z,38.83
2022-10-14T18:44:15.333Z,33.92
2022-10-14T18:46:42.326Z,32.58
2022-10-14T18:49:11.544Z,29.77
2022-10-14T18:51:40.187Z,31.00
2022-10-14T18:54:16.090Z,32.05
2022-10-14T18:56:44.420Z,36.45
2022-10-14T18:59:17.803Z,34.78
2022-10-14T19:01:46.091Z,41.30
2022-10-14T19:04:15.937Z,41.63
2022-10-14T19:06:48.482Z,48.80
2022-10-14T19:09:16.992Z,45.90
2022-10-14T19:11:44.656Z,56.67
2022-10-14T19:14:13.103Z,71.95
2022-10-14T19:16:40.325Z,57.20
2022-10-14T19:19:15.153Z,62.88
2022-10-14T19:21:44.349Z,83.70
2022-10-14T19:24:12.788Z,61.42
2022-10-14T19:26:43.221Z,54.08
2022-10-14T19:29:13.074Z,57.80
2022-10-14T19:31:41.187Z,76.53
2022-10-14T19:34:11.340Z,54.33
2022-10-14T19:36:40.032Z,52.15
2022-10-14T19:39:08.915Z,59.50
2022-10-14T19:41:42.630Z,71.43
2022-10-14T19:44:10.906Z,65.73
2022-10-14T19:46:38.192Z,59.00
2022-10-14T19:49:05.984Z,54.33
2022-10-14T19:51:34.536Z,48.20
2022-10-14T19:54:02.309Z,58.43
2022-10-14T19:56:29.201Z,62.95
2022-10-14T19:58:58.130Z,55.00
2022-10-14T20:01:28.020Z,57.60
2022-10-14T20:03:55.124Z,53.93
2022-10-14T20:06:23.063Z,55.13
2022-10-14T20:08:50.173Z,51.03
2022-10-14T20:11:21.128Z,50.10
2022-10-14T20:13:48.729Z,48.63
2022-10-14T20:16:16.282Z,49.30
2022-10-14T20:18:43.090Z,48.73
2022-10-14T20:21:13.078Z,49.17
2022-10-14T20:23:40.791Z,49.10
2022-10-14T20:26:20.334Z,45.80
2022-10-14T20:28:48.207Z,49.20
2022-10-14T20:31:18.118Z,46.53
2022-10-14T20:33:45.416Z,46.33
2022-10-14T20:36:16.810Z,45.77
2022-10-14T20:38:44.139Z,51.08
2022-10-14T20:41:29.024Z,49.10
2022-10-14T20:43:57.249Z,51.00
2022-10-14T20:46:25.170Z,46.73
2022-10-14T20:48:56.711Z,48.55
2022-10-14T20:51:25.291Z,50.13
2022-10-14T20:54:03.092Z,47.83
2022-10-14T20:56:32.953Z,47.40
2022-10-14T20:59:01.973Z,48.03
2022-10-14T21:01:29.901Z,48.60
2022-10-14T21:04:01.235Z,45.53
2022-10-14T21:06:28.979Z,45.93
2022-10-14T21:08:57.036Z,47.50
2022-10-14T21:11:25.307Z,45.37
2022-10-14T21:13:54.748Z,46.47
2022-10-14T21:16:24.500Z,47.63
2022-10-14T21:18:57.619Z,44.40
2022-10-14T21:21:27.382Z,45.87
2022-10-14T21:23:54.978Z,42.67
2022-10-14T21:26:22.257Z,42.20
2022-10-14T21:28:49.160Z,42.35
2022-10-14T21:31:18.963Z,44.67
2022-10-14T21:33:47.806Z,45.03
2022-10-14T21:36:16.462Z,47.40
2022-10-14T21:38:43.745Z,45.10
2022-10-14T21:41:10.899Z,48.77
2022-10-14T21:43:38.789Z,51.07
2022-10-14T21:46:12.949Z,49.53
2022-10-14T21:48:40.808Z,51.53
2022-10-14T21:51:13.872Z,51.10
2022-10-14T21:53:41.825Z,50.03
2022-10-14T21:56:10.348Z,55.13
2022-10-14T21:58:37.707Z,53.50
2022-10-14T22:01:14.266Z,56.93
2022-10-14T22:03:43.201Z,55.70
2022-10-14T22:06:14.356Z,54.00
2022-10-14T22:08:43.357Z,54.35
2022-10-14T22:11:18.973Z,53.63
2022-10-14T22:13:46.409Z,50.97
2022-10-14T22:16:16.817Z,49.85
2022-10-14T22:18:46.691Z,52.10
2022-10-14T22:21:15.312Z,51.13
2022-10-14T22:23:42.614Z,48.83
2022-10-14T22:26:12.405Z,49.78
2022-10-14T22:28:39.400Z,48.03
2022-10-14T22:31:15.684Z,48.83
2022-10-14T22:33:43.522Z,49.95
2022-10-14T22:36:19.440Z,49.53
2022-10-14T22:38:50.428Z,47.00
2022-10-14T22:41:18.851Z,50.83
2022-10-14T22:43:56.546Z,49.83
2022-10-14T22:46:26.934Z,47.93
2022-10-14T22:48:56.298Z,46.07
2022-10-14T22:51:29.277Z,45.50
2022-10-14T22:53:56.309Z,44.50
2022-10-14T22:56:25.508Z,50.37
2022-10-14T22:58:58.513Z,47.45
2022-10-14T23:01:27.992Z,47.63
2022-10-14T23:03:56.526Z,48.00
2022-10-14T23:06:23.687Z,45.50
2022-10-14T23:08:50.781Z,45.80
2022-10-14T23:11:19.642Z,47.95
2022-10-14T23:13:47.195Z,47.35
2022-10-14T23:16:22.699Z,46.53
2022-10-14T23:18:49.837Z,47.72
2022-10-14T23:21:31.066Z,45.42
2022-10-14T23:24:00.629Z,47.10
2022-10-14T23:26:31.579Z,48.03
2022-10-14T23:28:59.299Z,45.15
2022-10-14T23:31:29.142Z,47.15
2022-10-14T23:34:01.543Z,47.60
2022-10-14T23:36:28.919Z,45.78
2022-10-14T23:38:55.758Z,48.72
2022-10-14T23:41:23.332Z,48.72
2022-10-14T23:43:51.673Z,48.08
2022-10-14T23:46:20.600Z,49.97
2022-10-14T23:48:55.654Z,49.03
2022-10-14T23:51:34.018Z,49.63
2022-10-14T23:54:01.078Z,51.78
2022-10-14T23:56:27.805Z,51.85
2022-10-14T23:58:54.662Z,51.25
